Time;durP1;ratioP1;P1;durP2;ratioP2;P2;SDS_P1;SDS_P2;PMS_P1;PMS_P2;Temp;Humidity;BMP_temperature;BMP_pressure;BME280_temperature;BME280_humidity;BME280_pressure;Samples;Min_cycle;Max_cycle;Signal;HPM_P1;HPM_P2
2021/12/12 00:00:30;;;;;;;30.40;12.32;;;;;;;3.31;99.07;101920.16;5228811;28;20477;-71
2021/12/12 00:03:16;;;;;;;22.27;9.90;;;;;;;3.32;98.96;101909.00;5213723;28;20135;-71
2021/12/12 00:05:51;;;;;;;28.00;10.88;;;;;;;3.32;98.99;101911.59;5213697;28;20493;-70
2021/12/12 00:08:24;;;;;;;26.00;10.48;;;;;;;3.34;98.97;101912.53;5213709;28;20080;-72
2021/12/12 00:10:59;;;;;;;;;;;;;;;3.36;98.94;101913.47;5213826;28;20037;-72
2021/12/12 00:13:37;;;;;;;27.17;10.85;;;;;;;3.37;98.77;101905.78;5217056;28;19921;-71
2021/12/12 00:16:09;;;;;;;27.45;10.15;;;;;;;3.40;98.31;101895.59;5233943;28;20048;-72
2021/12/12 00:18:41;;;;;;;32.23;11.00;;;;;;;3.42;98.49;101898.22;5234152;28;20026;-72
2021/12/12 00:21:16;;;;;;;22.92;9.23;;;;;;;3.41;98.53;101894.78;5234071;28;20068;-72
2021/12/12 00:23:48;;;;;;;20.67;9.55;;;;;;;3.44;98.47;101902.56;5233312;28;20892;-72
2021/12/12 00:26:19;;;;;;;30.57;10.40;;;;;;;3.44;98.23;101900.00;5234078;28;20030;-71
2021/12/12 00:28:52;;;;;;;25.53;10.00;;;;;;;3.51;98.30;101905.38;5234405;28;20775;-71
2021/12/12 00:31:24;;;;;;;22.80;8.77;;;;;;;3.51;97.89;101887.31;5233736;28;20789;-71
2021/12/12 00:33:56;;;;;;;;;;;;;;;3.55;98.15;101890.06;5234610;28;20093;-70
2021/12/12 00:36:29;;;;;;;22.92;8.98;;;;;;;3.56;97.69;101888.34;5233929;28;19917;-70
2021/12/12 00:39:07;;;;;;;23.30;8.70;;;;;;;3.54;97.61;101888.34;5233935;28;20033;-71
2021/12/12 00:41:49;;;;;;;23.73;9.60;;;;;;;3.58;97.57;101881.56;5233783;28;20091;-70
2021/12/12 00:44:21;;;;;;;28.77;9.60;;;;;;;3.57;97.65;101879.81;5233942;28;20038;-71
2021/12/12 00:46:57;;;;;;;22.45;9.30;;;;;;;3.57;97.96;101880.66;5238240;28;20033;-71
2021/12/12 00:49:31;;;;;;;25.08;9.95;;;;;;;3.58;97.78;101879.00;5237034;28;20036;-70
2021/12/12 00:52:05;;;;;;;23.85;8.52;;;;;;;3.57;98.19;101884.97;5238342;28;20566;-70
2021/12/12 00:54:38;;;;;;;25.33;8.52;;;;;;;3.55;98.33;101882.31;5237518;28;20057;-70
2021/12/12 00:57:13;;;;;;;22.88;8.77;;;;;;;3.54;98.80;101875.44;5237940;28;20128;-71
2021/12/12 00:59:46;;;;;;;23.52;9.10;;;;;;;3.52;99.08;101871.91;5238034;28;20045;-71
2021/12/12 01:02:22;;;;;;;30.45;9.32;;;;;;;3.52;99.47;101865.88;5237834;28;20025;-70
2021/12/12 01:04:57;;;;;;;25.13;9.75;;;;;;;3.50;99.78;101859.81;5237612;28;20377;-70
2021/12/12 01:07:35;;;;;;;28.52;10.00;;;;;;;3.45;100.00;101860.53;5237876;28;20396;-71
2021/12/12 01:10:24;;;;;;;26.83;9.85;;;;;;;3.41;100.00;101853.53;5237956;28;20052;-71
2021/12/12 01:12:58;;;;;;;28.23;11.13;;;;;;;3.37;100.00;101868.84;5237729;28;20033;-70
2021/12/12 01:15:37;;;;;;;24.40;10.45;;;;;;;3.35;100.00;101860.16;5237640;28;20051;-70
2021/12/12 01:18:17;;;;;;;22.70;10.75;;;;;;;3.37;100.00;101858.53;5237669;28;20029;-69
2021/12/12 01:20:56;;;;;;;25.55;10.73;;;;;;;3.34;100.00;101859.28;5237671;28;20508;-70
2021/12/12 01:23:28;;;;;;;24.67;10.98;;;;;;;3.35;100.00;101853.31;5237467;28;20535;-70
2021/12/12 01:25:59;;;;;;;29.17;9.90;;;;;;;3.36;100.00;101855.03;5237404;28;20056;-70
2021/12/12 01:28:33;;;;;;;34.20;11.50;;;;;;;3.37;100.00;101859.38;5237496;28;20083;-69
2021/12/12 01:31:08;;;;;;;31.38;11.77;;;;;;;3.39;100.00;101857.72;5237147;28;20049;-70
2021/12/12 01:33:41;;;;;;;28.13;10.60;;;;;;;3.42;100.00;101865.56;5237515;28;20033;-69
2021/12/12 01:36:29;;;;;;;35.22;11.00;;;;;;;3.40;100.00;101863.78;5237118;28;20036;-71
2021/12/12 01:39:01;;;;;;;29.45;10.60;;;;;;;3.41;100.00;101866.41;5237020;28;20164;-71
2021/12/12 01:41:37;;;;;;;24.30;10.07;;;;;;;3.43;100.00;101871.59;5236793;28;20029;-71
2021/12/12 01:44:32;;;;;;;25.92;11.50;;;;;;;3.44;100.00;101861.34;5237109;28;20030;-70
2021/12/12 01:47:12;;;;;;;30.40;11.18;;;;;;;3.44;100.00;101853.59;5236986;28;20060;-70
2021/12/12 01:49:47;;;;;;;33.35;11.38;;;;;;;3.44;100.00;101861.34;5237136;28;20408;-71
2021/12/12 01:52:23;;;;;;;28.65;10.60;;;;;;;3.46;100.00;101861.38;5237071;28;20095;-72
2021/12/12 01:55:12;;;;;;;30.42;10.93;;;;;;;3.47;100.00;101864.03;5236704;28;20037;-70
2021/12/12 01:57:43;;;;;;;37.08;11.25;;;;;;;3.48;100.00;101854.59;5236312;28;20033;-70
2021/12/12 02:00:23;;;;;;;25.30;10.40;;;;;;;3.49;100.00;101858.91;5236806;28;20420;-71
2021/12/12 02:02:55;;;;;;;31.08;11.15;;;;;;;3.51;100.00;101854.72;5236843;28;20063;-71
2021/12/12 02:05:28;;;;;;;33.67;11.43;;;;;;;3.53;100.00;101853.06;5236913;28;20025;-71
2021/12/12 02:08:04;;;;;;;30.73;11.05;;;;;;;3.56;100.00;101862.56;5236670;28;20064;-70
2021/12/12 02:10:46;;;;;;;25.98;10.40;;;;;;;3.57;100.00;101854.88;5236510;28;20040;-70
2021/12/12 02:13:21;;;;;;;36.42;10.82;;;;;;;3.60;100.00;101857.56;5236237;28;20120;-70
2021/12/12 02:15:57;;;;;;;27.00;10.32;;;;;;;3.60;100.00;101847.25;5236464;28;20495;-70
2021/12/12 02:18:35;;;;;;;28.70;10.52;;;;;;;3.62;100.00;101844.72;5236359;28;20035;-71
2021/12/12 02:21:17;;;;;;;26.70;10.60;;;;;;;3.63;100.00;101846.50;5236134;28;20021;-70
2021/12/12 02:35:53;;;;;;;27.67;9.95;;;;;;;3.77;100.00;101841.78;5236487;28;20041;-71
2021/12/12 02:38:27;;;;;;;30.47;11.07;;;;;;;3.79;100.00;101846.16;5235881;28;20116;-71
2021/12/12 02:41:06;;;;;;;24.30;9.20;;;;;;;3.81;100.00;101844.50;5236111;28;20304;-71
2021/12/12 02:43:45;;;;;;;26.70;11.20;;;;;;;3.83;100.00;101836.81;5235621;28;20397;-71
2021/12/12 02:46:21;;;;;;;28.63;10.40;;;;;;;3.83;100.00;101835.13;5236015;28;20112;-71
2021/12/12 02:48:58;;;;;;;25.13;10.57;;;;;;;3.84;100.00;101823.97;5235741;28;20172;-70
2021/12/12 02:51:31;;;;;;;30.88;10.27;;;;;;;3.85;100.00;101814.53;5235452;28;20044;-71
2021/12/12 02:54:03;;;;;;;28.42;11.85;;;;;;;3.86;100.00;101813.69;5235421;28;20056;-70
2021/12/12 02:56:37;;;;;;;27.93;11.37;;;;;;;3.87;100.00;101812.88;5235822;28;20068;-71
2021/12/12 02:59:14;;;;;;;34.90;12.07;;;;;;;3.90;100.00;101809.53;5235315;28;20022;-70
2021/12/12 03:01:53;;;;;;;31.88;11.68;;;;;;;3.89;100.00;101811.22;5235324;28;20030;-70
2021/12/12 03:04:26;;;;;;;37.97;12.02;;;;;;;3.91;100.00;101819.00;5235503;28;20030;-70
2021/12/12 03:06:57;;;;;;;;;;;;;;;3.93;100.00;101813.06;5235410;28;20045;-70
2021/12/12 03:09:38;;;;;;;23.10;10.40;;;;;;;3.92;100.00;101806.16;5235330;28;19968;-70
2021/12/12 03:12:13;;;;;;;36.80;13.23;;;;;;;3.94;100.00;101816.50;5235221;28;20021;-70
2021/12/12 03:14:47;;;;;;;33.65;11.00;;;;;;;3.94;100.00;101804.47;5235147;28;20112;-71
2021/12/12 03:17:23;;;;;;;26.17;10.25;;;;;;;3.96;100.00;101813.16;5235031;28;20061;-71
2021/12/12 03:19:59;;;;;;;34.85;11.35;;;;;;;3.99;100.00;101814.94;5235291;28;20022;-69
2021/12/12 03:22:31;;;;;;;29.83;11.63;;;;;;;4.01;100.00;101808.16;5235175;28;20135;-69
2021/12/12 03:25:03;;;;;;;32.90;11.37;;;;;;;4.01;100.00;101808.16;5235386;28;20477;-70
2021/12/12 03:27:35;;;;;;;;;;;;;;;4.06;100.00;101796.25;5235210;28;20115;-71
2021/12/12 03:30:07;;;;;;;30.75;10.30;;;;;;;4.06;100.00;101797.94;5234842;28;19963;-69
2021/12/12 03:32:39;;;;;;;32.53;12.88;;;;;;;4.06;100.00;101787.63;5234941;28;20081;-70
2021/12/12 03:35:11;;;;;;;32.70;12.87;;;;;;;4.08;100.00;101781.69;5235069;28;20060;-70
2021/12/12 03:37:43;;;;;;;34.93;12.93;;;;;;;4.08;100.00;101770.50;5234952;28;20029;-70
2021/12/12 03:40:19;;;;;;;38.63;11.30;;;;;;;4.14;100.00;101773.28;5234485;28;20064;-70
2021/12/12 03:42:54;;;;;;;36.67;12.88;;;;;;;4.12;100.00;101782.66;5234534;28;20037;-70
2021/12/12 03:45:28;;;;;;;33.75;13.65;;;;;;;4.14;100.00;101779.31;5234494;28;20037;-70
2021/12/12 03:48:25;;;;;;;37.20;13.02;;;;;;;4.15;100.00;101781.06;5234225;28;20033;-70
2021/12/12 03:51:00;;;;;;;29.85;12.07;;;;;;;4.19;100.00;101784.59;5234168;28;20547;-71
2021/12/12 03:53:35;;;;;;;35.15;11.32;;;;;;;4.20;100.00;101778.59;5234280;28;20404;-70
2021/12/12 03:56:08;;;;;;;26.30;12.30;;;;;;;4.26;100.00;101785.66;5234652;28;20029;-71
2021/12/12 03:58:41;;;;;;;28.92;12.35;;;;;;;4.20;100.00;101770.84;5234335;28;20034;-69
2021/12/12 04:01:33;;;;;;;29.52;13.48;;;;;;;4.25;100.00;101782.22;5234173;28;20036;-70
2021/12/12 04:04:15;;;;;;;21.88;12.88;;;;;;;4.25;100.00;101783.88;5234585;28;20060;-70
2021/12/12 04:06:48;;;;;;;26.23;12.80;;;;;;;4.28;100.00;101783.97;5234387;28;20025;-70
2021/12/12 04:09:20;;;;;;;26.15;12.98;;;;;;;4.28;100.00;101783.97;5234427;28;20033;-71
2021/12/12 04:11:56;;;;;;;26.67;13.02;;;;;;;4.31;100.00;101786.66;5234196;28;20083;-71
2021/12/12 04:14:29;;;;;;;22.50;12.35;;;;;;;4.33;100.00;101788.47;5234598;28;20064;-70
2021/12/12 04:17:05;;;;;;;33.67;13.63;;;;;;;4.31;100.00;101789.22;5234370;28;20065;-71
2021/12/12 04:19:36;;;;;;;29.90;12.65;;;;;;;4.33;100.00;101784.97;5234382;28;20048;-71
2021/12/12 04:22:08;;;;;;;29.70;13.67;;;;;;;4.33;100.00;101798.78;5234081;28;20033;-71
2021/12/12 04:24:44;;;;;;;22.60;12.30;;;;;;;4.31;100.00;101792.69;5234294;28;20088;-70
2021/12/12 04:27:17;;;;;;;26.73;13.50;;;;;;;4.33;100.00;101801.38;5234290;28;20021;-70
2021/12/12 04:29:49;;;;;;;;;;;;;;;4.38;100.00;101797.22;5234380;28;20030;-70
2021/12/12 04:32:27;;;;;;;24.55;13.98;;;;;;;4.38;100.00;101799.78;5234049;28;20023;-70
2021/12/12 04:35:04;;;;;;;24.10;12.82;;;;;;;4.38;100.00;101791.19;5233976;28;20917;-69
2021/12/12 04:37:35;;;;;;;26.08;13.57;;;;;;;4.37;100.00;101792.00;5234216;28;20369;-71
2021/12/12 04:40:10;;;;;;;21.33;12.63;;;;;;;4.41;100.00;101795.53;5233749;28;20028;-71
2021/12/12 04:42:44;;;;;;;26.38;12.85;;;;;;;4.41;100.00;101786.06;5234087;28;20060;-70
2021/12/12 04:45:50;;;;;;;24.13;12.05;;;;;;;4.48;100.00;101789.72;5233855;28;20026;-70
2021/12/12 04:51:38;;;;;;;24.08;12.13;;;;;;;4.47;100.00;101793.13;5234286;28;20493;-71
2021/12/12 04:54:33;;;;;;;23.55;11.18;;;;;;;4.45;100.00;101794.81;5233931;28;20083;-72
2021/12/12 04:57:19;;;;;;;22.00;11.77;;;;;;;4.47;100.00;101790.56;5233903;28;20048;-69
2021/12/12 05:00:10;;;;;;;23.02;11.18;;;;;;;4.47;100.00;101798.31;5233417;28;20033;-71
2021/12/12 05:03:00;;;;;;;21.45;10.73;;;;;;;4.53;100.00;101801.06;5234035;28;20029;-69
2021/12/12 05:05:39;;;;;;;19.10;11.82;;;;;;;4.54;100.00;101797.63;5233877;28;20060;-71
2021/12/12 05:08:20;;;;;;;16.75;11.27;;;;;;;4.60;100.00;101800.38;5233638;28;20116;-71
2021/12/12 05:11:00;;;;;;;22.08;12.43;;;;;;;4.55;100.00;101808.00;5233984;28;20076;-70
2021/12/12 05:13:40;;;;;;;18.48;11.27;;;;;;;4.58;100.00;101799.47;5233811;28;20033;-70
2021/12/12 05:16:24;;;;;;;18.33;11.43;;;;;;;4.60;100.00;101812.44;5232246;28;20084;-71
2021/12/12 05:19:04;;;;;;;20.13;11.07;;;;;;;4.60;100.00;101807.28;5233318;28;20140;-71
2021/12/12 05:21:40;;;;;;;18.63;11.65;;;;;;;4.60;100.00;101812.44;5233911;28;20037;-70
2021/12/12 05:24:13;;;;;;;20.27;11.45;;;;;;;4.60;100.00;101817.59;5233635;28;20033;-70
2021/12/12 05:26:50;;;;;;;16.27;11.40;;;;;;;4.69;100.00;101816.16;5233639;28;20026;-71
2021/12/12 05:29:27;;;;;;;24.95;11.98;;;;;;;4.69;100.00;101813.56;5233259;28;20026;-70
2021/12/12 05:32:02;;;;;;;18.70;11.57;;;;;;;4.70;100.00;101810.16;5235852;28;20111;-71
2021/12/12 05:34:38;;;;;;;18.45;11.60;;;;;;;4.76;100.00;101814.59;5237392;28;20030;-71
2021/12/12 05:37:12;;;;;;;18.95;12.23;;;;;;;4.71;100.00;101813.63;5237196;28;20117;-71
2021/12/12 05:39:44;;;;;;;17.40;11.25;;;;;;;4.73;100.00;101812.84;5237462;28;20057;-71
2021/12/12 05:42:19;;;;;;;17.15;10.93;;;;;;;4.75;100.00;101818.03;5236874;28;20477;-71
2021/12/12 05:44:51;;;;;;;17.02;11.38;;;;;;;4.76;100.00;101804.28;5237041;28;20350;-71
2021/12/12 05:47:22;;;;;;;15.40;11.00;;;;;;;4.78;100.00;101817.22;5237132;28;20021;-71
2021/12/12 05:49:54;;;;;;;18.17;11.17;;;;;;;4.78;100.00;101820.69;5237056;28;20025;-70
2021/12/12 05:52:26;;;;;;;19.20;11.07;;;;;;;4.81;100.00;101825.94;5236591;28;20025;-70
2021/12/12 05:54:57;;;;;;;15.47;10.47;;;;;;;4.85;100.00;101817.44;5236795;28;20053;-70
2021/12/12 05:57:30;;;;;;;15.00;10.43;;;;;;;4.86;100.00;101831.22;5237092;28;20029;-71
2021/12/12 06:00:08;;;;;;;18.58;11.27;;;;;;;4.89;100.00;101831.31;5236597;28;20025;-71
2021/12/12 06:02:44;;;;;;;17.95;11.57;;;;;;;4.91;100.00;101834.81;5236518;28;20108;-69
2021/12/12 06:05:15;;;;;;;18.25;10.68;;;;;;;4.91;100.00;101840.88;5236744;28;20029;-70
2021/12/12 06:07:49;;;;;;;17.17;10.37;;;;;;;4.93;100.00;101838.34;5236828;28;20039;-71
2021/12/12 06:10:22;;;;;;;18.83;11.38;;;;;;;4.98;100.00;101836.75;5236662;28;20510;-69
2021/12/12 06:12:56;;;;;;;17.98;11.30;;;;;;;4.98;100.00;101841.06;5236713;28;20052;-71
2021/12/12 06:15:30;;;;;;;20.48;11.27;;;;;;;5.05;100.00;101842.94;5236190;28;20103;-71
2021/12/12 06:18:02;;;;;;;18.33;12.10;;;;;;;5.07;100.00;101844.75;5236238;28;20037;-70
2021/12/12 06:20:33;;;;;;;20.70;11.23;;;;;;;5.06;100.00;101850.75;5236669;28;20476;-70
2021/12/12 06:23:05;;;;;;;22.07;13.33;;;;;;;5.11;100.00;101856.03;5236488;28;20144;-70
2021/12/12 06:25:37;;;;;;;17.83;12.33;;;;;;;5.13;100.00;101854.38;5236380;28;20033;-70
2021/12/12 06:28:16;;;;;;;18.20;13.02;;;;;;;5.13;100.00;101856.09;5236198;28;20396;-69
2021/12/12 06:30:47;;;;;;;18.60;12.38;;;;;;;5.15;100.00;101846.66;5236115;28;20057;-70
2021/12/12 06:33:19;;;;;;;21.23;12.30;;;;;;;5.18;100.00;101838.97;5236076;28;20029;-71
2021/12/12 06:35:52;;;;;;;15.33;11.40;;;;;;;5.22;100.00;101846.00;5235970;28;20032;-70
2021/12/12 06:38:24;;;;;;;16.67;12.30;;;;;;;5.22;100.00;101840.81;5235781;28;20037;-70
2021/12/12 06:40:57;;;;;;;21.08;12.40;;;;;;;5.22;100.00;101843.41;5235903;28;20036;-71
2021/12/12 06:43:29;;;;;;;20.67;12.02;;;;;;;5.29;100.00;101850.47;5235015;28;20045;-71
2021/12/12 06:46:03;;;;;;;19.27;12.55;;;;;;;5.28;100.00;101843.53;5235743;28;20030;-72
2021/12/12 06:48:38;;;;;;;18.30;12.57;;;;;;;5.33;100.00;101851.44;5235632;28;20061;-71
2021/12/12 06:51:10;;;;;;;21.73;13.45;;;;;;;5.31;100.00;101848.81;5235776;28;20446;-70
2021/12/12 06:53:45;;;;;;;19.63;13.98;;;;;;;5.32;100.00;101855.72;5235404;28;20029;-72
2021/12/12 06:56:18;;;;;;;20.52;12.65;;;;;;;5.38;100.00;101863.66;5235786;28;20026;-70
2021/12/12 06:58:51;;;;;;;22.65;14.20;;;;;;;5.38;100.00;101863.66;5235672;28;20048;-71
2021/12/12 07:01:27;;;;;;;22.40;13.35;;;;;;;5.41;100.00;101868.00;5235444;28;20424;-69
2021/12/12 07:04:00;;;;;;;16.27;12.63;;;;;;;5.47;100.00;101856.13;5235269;28;20029;-70
2021/12/12 07:06:32;;;;;;;18.35;12.68;;;;;;;5.47;100.00;101869.06;5235859;28;20460;-72
2021/12/12 07:09:07;;;;;;;24.13;14.00;;;;;;;5.47;100.00;101866.47;5233999;28;20060;-69
2021/12/12 07:11:41;;;;;;;22.25;15.20;;;;;;;5.49;100.00;101858.78;5235558;28;20025;-70
2021/12/12 07:14:16;;;;;;;22.70;14.68;;;;;;;5.53;100.00;101854.53;5235242;28;20398;-70
2021/12/12 07:16:48;;;;;;;25.02;15.63;;;;;;;5.51;100.00;101861.41;5234809;28;20461;-70
2021/12/12 07:19:19;;;;;;;22.40;13.30;;;;;;;5.53;100.00;101859.72;5235283;28;20075;-70
2021/12/12 07:21:51;;;;;;;23.63;14.03;;;;;;;5.59;100.00;101860.75;5235069;28;20210;-71
2021/12/12 07:24:23;;;;;;;21.80;14.27;;;;;;;5.57;100.00;101865.00;5235195;28;20152;-70
2021/12/12 07:26:54;;;;;;;22.60;14.53;;;;;;;5.58;100.00;101863.28;5235355;28;20033;-70
2021/12/12 07:29:27;;;;;;;20.73;13.53;;;;;;;5.61;100.00;101871.13;5234749;28;20276;-72
2021/12/12 07:31:59;;;;;;;20.92;13.73;;;;;;;5.66;100.00;101865.22;5234513;28;20049;-69
2021/12/12 07:34:30;;;;;;;21.03;15.60;;;;;;;5.64;100.00;101859.13;5234879;28;20075;-71
2021/12/12 07:37:07;;;;;;;21.83;15.27;;;;;;;5.66;100.00;101864.34;5235057;28;20036;-70
2021/12/12 07:39:40;;;;;;;20.38;14.60;;;;;;;5.64;100.00;101864.31;5234519;28;20021;-71
2021/12/12 07:42:15;;;;;;;24.10;15.13;;;;;;;5.70;100.00;101866.19;5234664;28;20038;-70
2021/12/12 07:44:47;;;;;;;22.80;15.07;;;;;;;5.70;100.00;101868.78;5234804;28;20422;-71
2021/12/12 07:47:19;;;;;;;25.42;16.27;;;;;;;5.73;100.00;101870.53;5234415;28;20430;-71
2021/12/12 07:49:51;;;;;;;26.07;16.43;;;;;;;5.72;100.00;101867.09;5234840;28;20116;-71
2021/12/12 07:52:27;;;;;;;25.23;15.13;;;;;;;5.76;100.00;101880.97;5234515;28;20497;-70
2021/12/12 07:54:59;;;;;;;33.35;15.45;;;;;;;5.75;100.00;101868.88;5234245;28;20057;-70
2021/12/12 07:57:32;;;;;;;27.67;14.75;;;;;;;5.80;100.00;101875.91;5234277;28;20091;-69
2021/12/12 08:00:12;;;;;;;27.25;17.08;;;;;;;5.83;100.00;101873.41;5234373;28;20029;-71
2021/12/12 08:02:45;;;;;;;26.70;15.13;;;;;;;5.91;100.00;101888.22;5233737;28;20048;-71
2021/12/12 08:05:19;;;;;;;27.55;16.58;;;;;;;5.90;100.00;101883.91;5234244;28;20524;-70
2021/12/12 08:07:50;;;;;;;22.90;15.07;;;;;;;5.94;100.00;101884.03;5234126;28;20432;-70
2021/12/12 08:10:22;;;;;;;26.73;16.83;;;;;;;5.93;100.00;101886.56;5234110;28;20049;-69
2021/12/12 08:12:54;;;;;;;27.13;15.63;;;;;;;5.97;100.00;101894.47;5234228;28;20078;-71
2021/12/12 08:15:28;;;;;;;25.35;15.98;;;;;;;6.03;100.00;101893.72;5234002;28;20414;-70
2021/12/12 08:18:04;;;;;;;27.70;17.23;;;;;;;6.06;100.00;101899.00;5233876;28;20121;-71
2021/12/12 08:20:37;;;;;;;29.30;15.88;;;;;;;6.05;100.00;101907.56;5233721;28;20124;-70
2021/12/12 08:23:09;;;;;;;25.52;15.85;;;;;;;6.03;100.00;101907.53;5233753;28;20029;-71
2021/12/12 08:25:43;;;;;;;30.43;16.27;;;;;;;6.06;100.00;101909.34;5234587;28;20079;-71
2021/12/12 08:28:15;;;;;;;30.35;17.67;;;;;;;6.07;100.00;101910.22;5233104;28;20836;-71
2021/12/12 08:30:48;;;;;;;27.48;16.40;;;;;;;6.11;100.00;101917.22;5233918;28;20046;-69
2021/12/12 08:33:21;;;;;;;31.33;16.80;;;;;;;6.14;100.00;101922.47;5233982;28;20104;-72
2021/12/12 08:35:55;;;;;;;26.02;16.27;;;;;;;6.16;100.00;101920.78;5233307;28;20037;-70
2021/12/12 08:38:26;;;;;;;29.38;17.70;;;;;;;6.15;100.00;101930.28;5229308;28;20428;-70
2021/12/12 08:41:01;;;;;;;28.80;18.90;;;;;;;6.17;100.00;101931.19;5232529;28;20037;-70
2021/12/12 08:43:34;;;;;;;32.65;18.38;;;;;;;6.19;100.00;101926.91;5231623;28;20030;-69
2021/12/12 08:46:13;;;;;;;29.73;17.55;;;;;;;6.20;100.00;101932.97;5224761;28;20897;-72
2021/12/12 08:48:48;;;;;;;29.10;18.30;;;;;;;6.19;100.00;101923.44;5232111;28;20033;-73
2021/12/12 08:51:30;;;;;;;26.27;17.80;;;;;;;6.27;100.00;101934.00;5231511;28;20026;-70
2021/12/12 08:54:14;;;;;;;31.00;17.98;;;;;;;6.26;100.00;101940.00;5229687;28;20028;-72
2021/12/12 08:56:48;;;;;;;28.45;17.45;;;;;;;6.29;100.00;101934.91;5232914;28;20475;-69
2021/12/12 08:59:26;;;;;;;34.38;17.48;;;;;;;6.31;100.00;101940.97;5232326;28;20029;-71
2021/12/12 09:02:04;;;;;;;33.30;18.67;;;;;;;6.30;100.00;101942.72;5232629;28;20033;-70
2021/12/12 09:04:42;;;;;;;28.85;18.80;;;;;;;6.32;100.00;101941.00;5232332;28;20041;-70
2021/12/12 09:07:18;;;;;;;28.42;18.00;;;;;;;6.36;100.00;101953.22;5236036;28;20099;-70
2021/12/12 09:09:59;;;;;;;35.47;18.48;;;;;;;6.36;100.00;101942.84;5237356;28;20033;-71
2021/12/12 09:12:41;;;;;;;34.77;19.73;;;;;;;6.38;100.00;101943.75;5237268;28;20081;-71
2021/12/12 09:15:21;;;;;;;33.75;18.20;;;;;;;6.42;100.00;101943.81;5237484;28;20037;-70
2021/12/12 09:18:04;;;;;;;38.55;19.63;;;;;;;6.49;100.00;101956.97;5224363;28;20034;-71
2021/12/12 09:20:48;;;;;;;37.45;18.60;;;;;;;6.47;100.00;101955.16;5216493;28;20022;-72
2021/12/12 09:23:37;;;;;;;30.77;17.02;;;;;;;6.50;100.00;101961.28;5216797;28;20100;-70
2021/12/12 09:26:17;;;;;;;30.60;17.63;;;;;;;6.49;100.00;101962.13;5216583;28;20466;-71
2021/12/12 09:29:10;;;;;;;38.78;16.80;;;;;;;6.48;100.00;101962.09;5216484;28;20109;-71
2021/12/12 09:31:50;;;;;;;40.10;18.70;;;;;;;6.49;100.00;101964.72;5216214;28;20084;-70
2021/12/12 09:34:31;;;;;;;29.42;17.67;;;;;;;6.53;100.00;101969.13;5216207;28;20053;-70
2021/12/12 09:37:10;;;;;;;24.17;15.32;;;;;;;6.59;100.00;101986.53;5216384;28;20108;-72
2021/12/12 09:39:49;;;;;;;29.45;17.52;;;;;;;6.59;100.00;101981.34;5216385;28;20377;-70
2021/12/12 09:42:32;;;;;;;31.05;18.23;;;;;;;6.60;100.00;101974.44;5216176;28;20033;-70
2021/12/12 09:45:11;;;;;;;;;;;;;;;6.64;100.00;101974.56;5227903;28;20025;-71
2021/12/12 09:51:33;;;;;;;30.13;17.42;;;;;;;6.68;100.00;101986.75;5236819;28;20045;-71
2021/12/12 09:54:13;;;;;;;32.83;17.55;;;;;;;6.73;100.00;101992.91;5192769;28;20050;-73
2021/12/12 09:56:56;;;;;;;28.48;17.05;;;;;;;6.78;100.00;101998.19;5192961;28;20190;-71
2021/12/12 09:59:32;;;;;;;26.83;16.50;;;;;;;6.82;100.00;101988.78;5192968;28;20034;-73
2021/12/12 10:02:21;;;;;;;24.70;15.52;;;;;;;6.91;100.00;102001.94;5192850;28;20493;-73
2021/12/12 10:05:25;;;;;;;29.48;18.08;;;;;;;6.85;100.00;101986.25;5192588;28;20049;-72
2021/12/12 10:08:34;;;;;;;27.85;16.13;;;;;;;6.84;100.00;101987.06;5192150;28;20134;-73
2021/12/12 10:11:17;;;;;;;27.42;15.57;;;;;;;6.90;100.00;101989.81;5112601;29;20079;-74
2021/12/12 10:14:11;;;;;;;30.80;17.20;;;;;;;6.90;100.00;101990.69;5112909;29;20500;-72
2021/12/12 10:16:57;;;;;;;33.45;17.23;;;;;;;6.93;100.00;101980.38;5035196;29;20114;-72
2021/12/12 10:19:50;;;;;;;32.10;17.63;;;;;;;6.97;100.00;101991.72;5035016;29;20170;-73
2021/12/12 10:22:39;;;;;;;28.70;16.80;;;;;;;6.99;100.00;101982.25;5034791;29;20049;-72
2021/12/12 10:25:15;;;;;;;33.92;16.95;;;;;;;7.00;100.00;101983.97;5023389;29;20150;-71
2021/12/12 10:28:09;;;;;;;25.42;16.92;;;;;;;7.02;100.00;101978.81;5032957;29;20068;-69
2021/12/12 10:30:50;;;;;;;32.75;18.75;;;;;;;7.01;100.00;101985.72;5053158;29;20136;-72
2021/12/12 10:33:28;;;;;;;38.67;19.23;;;;;;;7.00;100.00;101986.56;5071937;29;20033;-71
2021/12/12 10:36:19;;;;;;;33.45;18.58;;;;;;;7.05;100.00;101986.66;5071853;29;20037;-72
2021/12/12 10:39:02;;;;;;;25.80;17.75;;;;;;;7.08;100.00;101999.69;5072164;29;20101;-74
2021/12/12 10:41:39;;;;;;;30.90;17.38;;;;;;;7.04;100.00;101984.94;5072260;29;20573;-74
2021/12/12 10:44:24;;;;;;;30.05;18.08;;;;;;;7.07;100.00;101990.19;5072130;29;20516;-71
2021/12/12 10:47:01;;;;;;;32.88;19.02;;;;;;;7.06;100.00;101975.47;5087591;29;20499;-73
2021/12/12 10:49:48;;;;;;;33.08;20.02;;;;;;;7.08;100.00;101989.31;5150918;29;20078;-72
2021/12/12 10:52:31;;;;;;;33.55;19.63;;;;;;;7.10;100.00;101985.06;5150662;29;20146;-71
2021/12/12 10:55:07;;;;;;;;;;;;;;;7.15;100.00;101991.22;5235331;28;20025;-73
2021/12/12 10:57:41;;;;;;;30.15;18.40;;;;;;;7.17;100.00;101989.53;5234774;28;19912;-73
2021/12/12 11:00:18;;;;;;;31.40;18.50;;;;;;;7.18;100.00;101987.78;5233713;28;20033;-73
2021/12/12 11:03:03;;;;;;;33.58;19.17;;;;;;;7.20;100.00;101987.00;5235134;28;20060;-73
2021/12/12 11:05:44;;;;;;;31.58;18.48;;;;;;;7.24;100.00;101987.91;5234844;28;20532;-71
2021/12/12 11:08:24;;;;;;;32.10;18.27;;;;;;;7.26;100.00;101994.00;5226047;28;20022;-72
2021/12/12 11:10:58;;;;;;;30.05;19.40;;;;;;;7.24;100.00;101988.78;5224571;28;20109;-74
2021/12/12 11:13:39;;;;;;;31.60;19.70;;;;;;;7.28;100.00;101982.84;5224070;28;20034;-73
2021/12/12 11:16:18;;;;;;;31.45;18.45;;;;;;;7.29;100.00;101997.56;5226505;28;20031;-72
2021/12/12 11:18:57;;;;;;;29.42;19.30;;;;;;;7.30;100.00;101988.06;5234897;28;20622;-72
2021/12/12 11:21:43;;;;;;;29.70;18.60;;;;;;;7.31;100.00;101984.63;5229987;28;20168;-71
2021/12/12 11:24:40;;;;;;;25.15;16.77;;;;;;;7.39;100.00;101980.47;5224013;28;20018;-76
2021/12/12 11:27:28;;;;;;;29.13;16.90;;;;;;;7.43;100.00;101984.84;5224985;28;20397;-73
2021/12/12 11:30:24;;;;;;;32.05;19.55;;;;;;;7.44;100.00;101986.59;5218760;28;20108;-74
2021/12/12 11:32:57;;;;;;;25.27;15.73;;;;;;;7.47;100.00;101986.66;5213796;28;20081;-72
2021/12/12 11:35:29;;;;;;;27.63;17.98;;;;;;;7.49;100.00;101978.91;5212730;28;20042;-72
2021/12/12 11:38:08;;;;;;;25.70;17.10;;;;;;;7.50;100.00;101983.25;5214383;28;20069;-71
2021/12/12 11:41:10;;;;;;;56.60;44.33;;;;;;;7.58;100.00;101973.91;5212613;28;20034;-73
2021/12/12 11:44:01;;;;;;;32.25;24.20;;;;;;;7.58;100.00;101988.59;5214428;28;20049;-71
2021/12/12 11:46:39;;;;;;;19.83;15.77;;;;;;;7.54;100.00;101985.06;5220268;28;20025;-71
2021/12/12 11:49:23;;;;;;;27.13;20.23;;;;;;;7.57;100.00;101985.13;5223324;28;20552;-72
2021/12/12 11:52:00;;;;;;;21.90;18.10;;;;;;;7.62;100.00;101980.03;5223836;28;20034;-71
2021/12/12 11:54:49;;;;;;;22.67;15.93;;;;;;;7.62;100.00;101993.88;5216558;28;20026;-73
2021/12/12 11:57:48;;;;;;;19.88;14.70;;;;;;;7.67;100.00;101984.44;5213866;28;20042;-73
2021/12/12 12:00:27;;;;;;;24.88;14.80;;;;;;;7.63;100.00;101985.25;5223621;28;20033;-71
2021/12/12 12:03:49;;;;;;;23.13;16.17;;;;;;;7.65;100.00;101987.88;5223581;28;20030;-73
2021/12/12 12:06:34;;;;;;;21.17;15.40;;;;;;;7.71;100.00;101989.69;5170038;28;20117;-71
2021/12/12 12:09:34;;;;;;;25.48;18.13;;;;;;;7.70;100.00;101975.84;5170459;28;20043;-73
2021/12/12 12:12:40;;;;;;;21.75;14.95;;;;;;;7.73;100.00;101985.38;5130093;29;20047;-72
2021/12/12 12:15:30;;;;;;;23.35;17.05;;;;;;;7.75;100.00;101986.31;5130331;28;20054;-73
2021/12/12 12:18:04;;;;;;;22.13;15.25;;;;;;;7.74;100.00;101997.53;5130494;29;20032;-72